Tiempo atmosférico en la estación meteorológica de Barcelona, Museo Marítimo, Barcelona (37 m.)



Fecha
DESCASC
Temp. máxima en grados centígrados (hora)
DESCASC
Temp. mínima en grados centígrados (hora)
DESCASC
Temp. media en grados centígrados
DESCASC
Racha de viento máxima en m/sg (hora)
DESCASC
Velocidad máxima media en intervalos de 10 minutos(hora)
DESCASC
Precipitaciones diarias en mm
DESCASC
Precipitaciones de 00:00 a 06:00 en mm
DESCASC
Precipitaciones de 06:00 a 12:00 en mm
DESCASC
Precipitaciones de 12:00 a 18:00 en mm
DESCASC
Precipitaciones de 18:00 a 24:00 en mm
DESCASC
24-09-2020 28 (14:40) 20.7 (07:50) 24.4 14.44 (16:50) 6.94 (16:50) 0 0 0 0 0
23-09-2020 28.1 (16:10) 19.7 (00:00) 23.9 9.17 (17:50) 5 (17:30) 0 0 0 0 0
22-09-2020 26.6 (14:40) 20.2 (00:00) 23.4 6.94 (15:50) 3.33 (15:50) 0 0 0 0 0
21-09-2020 23.7 (11:50) 20.3 (00:00) 22 6.67 (12:20) 2.78 (12:20) 8.6 0 0.2 8.2 0.2
20-09-2020 27.5 (16:00) 21.5 (00:00) 24.5 8.33 (19:10) 4.72 (19:10) 0 0 0 0 0
19-09-2020 27.8 (15:00) 21.7 (00:00) 24.8 8.06 (17:40) 4.17 (16:50) 0 0 0 0 0
18-09-2020 26.5 (12:20) 22.2 (00:00) 24.4 6.94 (13:40) 2.78 (13:40) 2.2 0 0 2.2 0
17-09-2020 29.4 (14:20) 22.4 (00:00) 25.9 7.5 (18:50) 4.17 (18:50) 0 0 0 0 0
16-09-2020 28.7 (16:50) 22 (00:00) 25.4 6.94 (17:40) 3.89 (17:40) 0 0 0 0 0
15-09-2020 28.2 (14:20) 21.2 (00:00) 24.7 7.5 (15:50) 3.61 (15:00) 0 0 0 0 0
14-09-2020 -- (--) -- (--) -- 5.28 (16:00) 2.5 (16:00) 0 0 0 0 0
13-09-2020 -- (--) -- (--) -- 4.17 (16:20) 2.22 (13:40) 0 0 0 0 0
12-09-2020 -- (--) -- (--) -- 5 (16:20) 2.5 (17:00) 0 0 0 0 0
11-09-2020 -- (--) -- (--) -- 7.22 (15:10) 3.89 (15:10) 0 0 0 0 0
10-09-2020 -- (--) -- (--) -- 7.22 (15:20) 3.89 (15:00) -- -- -- -- --
09-09-2020 -- (--) -- (--) -- 5.83 (17:10) 2.5 (06:20) -- 10.4 -- -- --
08-09-2020 -- (--) -- (--) -- 10 (15:40) 4.17 (15:40) 0 0 0 0 0
07-09-2020 -- (--) -- (--) -- 9.17 (16:40) 4.44 (16:50) 7.6 2.8 0.4 0 4.4
06-09-2020 -- (--) -- (--) -- 11.39 (23:30) 5.28 (23:30) 53 0 0 0 53
05-09-2020 -- (--) -- (--) -- 5.28 (16:20) 2.22 (18:50) 0 0 0 0 0
04-09-2020 -- (--) -- (--) -- 6.39 (16:20) 3.06 (16:20) 0 0 0 0 0
03-09-2020 -- (--) -- (--) -- 6.11 (17:30) 2.5 (18:40) -- -- -- -- --
02-09-2020 -- (--) -- (--) -- 9.17 (16:00) 4.72 (15:50) -- -- -- -- --
01-09-2020 -- (--) -- (--) -- 6.11 (23:10) 2.5 (18:20) -- 0 -- -- --
31-08-2020 -- (--) -- (--) -- 10 (14:40) 5.28 (14:40) 0 0 0 0 0
30-08-2020 -- (--) -- (--) -- 8.33 (21:30) 3.06 (21:30) 3 0 0 0 3
29-08-2020 -- (--) -- (--) -- 7.78 (01:40) 3.33 (02:00) 16.4 13.4 1.4 0.8 0.8
28-08-2020 -- (--) -- (--) -- 11.67 (22:10) 4.72 (20:40) 0 0 0 0 0
27-08-2020 -- (--) -- (--) -- 6.67 (16:50) 3.33 (17:10) -- -- -- -- --
26-08-2020 -- (--) -- (--) -- 7.78 (14:30) 4.44 (14:20) -- -- -- -- --

Gráficas

Temp. máximas Temp. mínimas Temp. medias Precipitaciones Rachas de viento máximas Velocidades máximas media en intervalos de 10 minutos

Datos horarios

Fecha y hora oficial Temperatura (ºC) Velocidad del viento (km/h) Dirección del viento Racha (km/h) Dirección de racha Precipitación (mm) Presión (hPa) Tendencia (hPa) Humedad (%)
2020-09-24 23:00:00 23.2 10 Noroeste 20 Oeste 0 -- -- 61
2020-09-24 22:00:00 23.1 9 Oeste 26 Oeste 0 -- -- 65
2020-09-24 21:00:00 23.1 13 Oeste 24 Oeste 0 -- -- 66
2020-09-24 20:00:00 23.4 11 Oeste 25 Oeste 0 -- -- 64
2020-09-24 19:00:00 23.7 11 Oeste 23 Oeste 0 -- -- 66
2020-09-24 18:00:00 23.3 12 Oeste 31 Oeste 0 -- -- 70
2020-09-24 17:00:00 23.9 23 Oeste 52 Oeste 0 -- -- 67
2020-09-24 16:00:00 26.7 15 Oeste 32 Oeste 0 -- -- 51
2020-09-24 15:00:00 27.2 19 Oeste 35 Noroeste 0 -- -- 50
2020-09-24 14:00:00 27.6 12 Oeste 23 Oeste 0 -- -- 49
2020-09-24 13:00:00 26.3 6 Sudoeste 19 Sudoeste 0 -- -- 60
2020-09-24 12:00:00 25.8 5 Sudoeste 14 Sudoeste 0 -- -- 57
2020-09-24 11:00:00 25.2 3 Nordeste 10 Sudeste 0 -- -- 60
2020-09-24 10:00:00 24.6 3 Este 8 Este 0 -- -- 58
2020-09-24 09:00:00 22 4 Este 6 Norte 0 -- -- 67
2020-09-24 08:00:00 20.7 2 Sudeste 10 Nordeste 0 -- -- 71
2020-09-24 07:00:00 21.5 6 Este 10 Este 0 -- -- 69
2020-09-24 06:00:00 21.8 0 Calma 5 Sudoeste 0 -- -- 63
2020-09-24 05:00:00 23.2 3 Este 9 Nordeste 0 -- -- 58
2020-09-24 04:00:00 22.8 2 Sudoeste 8 Oeste 0 -- -- 61
2020-09-24 03:00:00 22.5 4 Oeste 10 Noroeste 0 -- -- 66
2020-09-24 02:00:00 22.2 3 Oeste 6 Oeste 0 -- -- 69
2020-09-24 01:00:00 22.7 4 Oeste 8 Oeste 0 -- -- 71
2020-09-24 00:00:00 22.9 6 Oeste 8 Oeste 0 -- -- 70
2020-09-23 23:00:00 23.9 4 Oeste 16 Oeste 0 -- -- 64
2020-09-23 22:00:00 24 8 Oeste 22 Oeste 0 -- -- 67
2020-09-23 21:00:00 24.6 10 Oeste 22 Oeste 0 -- -- 63
2020-09-23 20:00:00 25 13 Oeste 26 Sudoeste 0 -- -- 65
2020-09-23 19:00:00 25.7 13 Oeste 31 Oeste 0 -- -- 64
2020-09-23 18:00:00 26.6 15 Oeste 33 Oeste 0 -- -- 60
2020-09-23 17:00:00 27.3 16 Oeste 28 Oeste 0 -- -- 57
2020-09-23 16:00:00 27.8 9 Oeste 23 Sudoeste 0 -- -- 52
2020-09-23 15:00:00 26.9 10 Oeste 23 Oeste 0 -- -- 61
2020-09-23 14:00:00 26.7 10 Oeste 23 Sudoeste 0 -- -- 59
2020-09-23 13:00:00 25.7 9 Oeste 19 Oeste 0 -- -- 63
2020-09-23 12:00:00 25.1 9 Oeste 15 Oeste 0 -- -- 61
2020-09-23 11:00:00 23.9 2 Sur 10 Sudoeste 0 -- -- 69
2020-09-23 10:00:00 23.3 3 Sudeste 9 Oeste 0 -- -- 73
2020-09-23 09:00:00 21.4 3 Oeste 8 Oeste 0 -- -- 80
2020-09-23 08:00:00 19.8 0 Calma 5 Nordeste 0 -- -- 84
2020-09-23 07:00:00 19.7 0 Calma 4 Oeste 0 -- -- 84
2020-09-23 06:00:00 20.1 0 Calma 3 Oeste 0 -- -- 83
2020-09-23 05:00:00 20.3 0 Calma 8 Nordeste 0 -- -- 82
2020-09-23 04:00:00 20.2 2 Este 5 Nordeste 0 -- -- 82
2020-09-23 03:00:00 20.8 0 Calma 6 Nordeste 0 -- -- 81
2020-09-23 02:00:00 21 0 Calma 5 Nordeste 0 -- -- 78
2020-09-23 01:00:00 21.3 0 Calma 9 Este 0 -- -- 76
2020-09-23 00:00:00 21.6 2 Este 6 Este 0 -- -- 76
2020-09-22 23:00:00 22.5 2 Sudoeste 9 Oeste 0 -- -- 71
2020-09-22 22:00:00 23.2 4 Oeste 13 Sudoeste 0 -- -- 69
2020-09-22 21:00:00 23.4 9 Oeste 14 Sudoeste 0 -- -- 71
2020-09-22 20:00:00 24 8 Oeste 18 Oeste 0 -- -- 70
2020-09-22 19:00:00 24.9 9 Oeste 22 Sudoeste 0 -- -- 63
2020-09-22 18:00:00 25.2 10 Sudoeste 22 Sudoeste 0 -- -- 68
2020-09-22 17:00:00 25.2 10 Oeste 25 Sudoeste 0 -- -- 68
2020-09-22 16:00:00 25.5 9 Oeste 25 Sudoeste 0 -- -- 63
2020-09-22 15:00:00 26.5 5 Noroeste 19 Sudoeste 0 -- -- 66
2020-09-22 14:00:00 26.2 4 Norte 13 Sudoeste 0 -- -- 66
2020-09-22 13:00:00 25.3 4 Norte 15 Sudeste 0 -- -- 67
2020-09-22 12:00:00 24.8 6 Sudeste 13 Sudeste 0 -- -- 70
2020-09-22 11:00:00 23.9 3 Sudoeste 12 Sudoeste 0 -- -- 70
2020-09-22 10:00:00 22.9 6 Oeste 10 Oeste 0 -- -- 73
2020-09-22 09:00:00 21.9 3 Oeste 5 Oeste 0 -- -- 77
2020-09-22 08:00:00 20.6 4 Oeste 8 Oeste 0 -- -- 81
2020-09-22 07:00:00 20.5 3 Oeste 6 Oeste 0 -- -- 83
2020-09-22 06:00:00 20.5 4 Noroeste 6 Noroeste 0 -- -- 81
2020-09-22 05:00:00 20.4 3 Nordeste 5 Nordeste 0 -- -- 81
2020-09-22 04:00:00 20.3 3 Oeste 6 Oeste 0 -- -- 81
2020-09-22 03:00:00 20.3 0 Calma 6 Este 0 -- -- 82
2020-09-22 02:00:00 20.5 0 Calma 6 Nordeste 0 -- -- 82
2020-09-22 01:00:00 20.7 3 Este 8 Nordeste 0 -- -- 80
2020-09-22 00:00:00 20.7 4 Nordeste 9 Nordeste 0 -- -- 83
2020-09-21 23:00:00 21.1 2 Este 5 Sudeste 0 -- -- 80
2020-09-21 22:00:00 21.4 0 Calma 8 Este 0 -- -- 79
2020-09-21 21:00:00 21.5 3 Este 7 Nordeste 0 -- -- 81
2020-09-21 20:00:00 21.7 3 Este 12 Sudeste 0.2 -- -- 81
2020-09-21 19:00:00 21.9 4 Sudeste 11 Este 0 -- -- 78
2020-09-21 18:00:00 22.2 3 Este 10 Sudeste 0 -- -- 78
2020-09-21 17:00:00 22.9 7 Sudeste 13 Sudeste 0 -- -- 76
2020-09-21 16:00:00 22.9 5 Este 10 Sudeste 0 -- -- 81
2020-09-21 15:00:00 20.4 4 Este 12 Este 0.8 -- -- 90
2020-09-21 14:00:00 20.7 6 Este 12 Este 2.6 -- -- 90
2020-09-21 13:00:00 20.8 8 Sudeste 24 Sudeste 4.8 -- -- 88
2020-09-21 12:00:00 23.6 7 Este 19 Sudeste 0 -- -- 75
2020-09-21 11:00:00 22.8 4 Este 10 Nordeste 0.2 -- -- 79
2020-09-21 10:00:00 22.7 4 Nordeste 8 Este 0 -- -- 73
2020-09-21 09:00:00 22.4 4 Este 10 Nordeste 0 -- -- 73
2020-09-21 08:00:00 22.2 3 Nordeste 8 Nordeste 0 -- -- 74
2020-09-21 07:00:00 22.5 3 Este 8 Nordeste 0 -- -- 70
2020-09-21 06:00:00 22.4 0 Calma 4 Sudeste 0 -- -- 74
2020-09-21 05:00:00 22.6 3 Este 8 Este 0 -- -- 71
2020-09-21 04:00:00 22.6 3 Este 6 Nordeste 0 -- -- 71
2020-09-21 03:00:00 22.6 3 Este 6 Nordeste 0 -- -- 71
2020-09-21 02:00:00 22.4 3 Este 7 Este 0 -- -- 71
2020-09-21 01:00:00 22 2 Sudeste 5 Sur 0 -- -- 72
2020-09-21 00:00:00 22.3 0 Calma 6 Oeste 0 -- -- 71
2020-09-20 23:00:00 23.5 4 Oeste 6 Oeste 0 -- -- 62
2020-09-20 22:00:00 24 0 Calma 15 Noroeste 0 -- -- 61
2020-09-20 21:00:00 24.9 8 Oeste 21 Oeste 0 -- -- 58
2020-09-20 20:00:00 25.2 14 Oeste 30 Oeste 0 -- -- 57
2020-09-20 19:00:00 26.1 14 Oeste 26 Oeste 0 -- -- 56
2020-09-20 18:00:00 26.4 14 Oeste 27 Noroeste 0 -- -- 55
2020-09-20 17:00:00 27 15 Oeste 28 Sudoeste 0 -- -- 51
2020-09-20 16:00:00 27.5 13 Oeste 29 Oeste 0 -- -- 50
2020-09-20 15:00:00 27.2 15 Oeste 28 Oeste 0 -- -- 51
2020-09-20 14:00:00 26.6 12 Oeste 24 Sudoeste 0 -- -- 51
2020-09-20 13:00:00 26 12 Oeste 21 Oeste 0 -- -- 52
2020-09-20 12:00:00 26 5 Oeste 20 Oeste 0 -- -- 50
2020-09-20 11:00:00 24.9 4 Sudoeste 12 Oeste 0 -- -- 52
2020-09-20 10:00:00 23.9 4 Oeste 13 Oeste 0 -- -- 57
2020-09-20 09:00:00 22.2 8 Oeste 16 Noroeste 0 -- -- 61
2020-09-20 08:00:00 21.6 6 Oeste 18 Noroeste 0 -- -- 62
2020-09-20 07:00:00 21.8 8 Oeste 16 Oeste 0 -- -- 61
2020-09-20 06:00:00 22 3 Oeste 12 Noroeste 0 -- -- 61
2020-09-20 05:00:00 22.5 5 Oeste 19 Oeste 0 -- -- 59
2020-09-20 04:00:00 22.9 10 Noroeste 19 Oeste 0 -- -- 57
2020-09-20 03:00:00 23.5 4 Oeste 21 Noroeste 0 -- -- 55
2020-09-20 02:00:00 23.8 6 Oeste 13 Oeste 0 -- -- 53
2020-09-20 01:00:00 23.3 5 Oeste 9 Oeste 0 -- -- 60
2020-09-20 00:00:00 23.4 4 Oeste 9 Oeste 0 -- -- 70
2020-09-19 23:00:00 23.9 5 Oeste 12 Noroeste 0 -- -- 68
2020-09-19 22:00:00 24.4 6 Oeste 10 Oeste 0 -- -- 67
2020-09-19 21:00:00 24.7 6 Oeste 17 Oeste 0 -- -- 65
2020-09-19 20:00:00 25.1 9 Oeste 27 Oeste 0 -- -- 65
2020-09-19 19:00:00 25.8 14 Oeste 26 Oeste 0 -- -- 66
2020-09-19 18:00:00 26.4 15 Oeste 29 Oeste 0 -- -- 66
2020-09-19 17:00:00 27.2 12 Oeste 28 Sudoeste 0 -- -- 62
2020-09-19 16:00:00 26.8 13 Oeste 27 Sudoeste 0 -- -- 71
2020-09-19 15:00:00 27.8 7 Oeste 17 Sudoeste 0 -- -- 69
2020-09-19 14:00:00 27 6 Sudeste 17 Este 0 -- -- 72
2020-09-19 13:00:00 26.8 4 Norte 13 Sudeste 0 -- -- 70
2020-09-19 12:00:00 25.5 4 Sudeste 10 Sudeste 0 -- -- 76
2020-09-19 11:00:00 24.1 4 Este 8 Sudeste 0 -- -- 80
2020-09-19 10:00:00 23.7 3 Sudeste 6 Sur 0 -- -- 82
2020-09-19 09:00:00 22.9 0 Calma 11 Sudoeste 0 -- -- 85
2020-09-19 08:00:00 22.1 2 Norte 8 Nordeste 0 -- -- 87
2020-09-19 07:00:00 21.9 2 Nordeste 8 Nordeste 0 -- -- 84
2020-09-19 06:00:00 22.1 2 Sudeste 4 Este 0 -- -- 86
2020-09-19 05:00:00 22.6 0 Calma 4 Sudoeste 0 -- -- 89
2020-09-19 04:00:00 22.7 2 Oeste 8 Noroeste 0 -- -- 87
2020-09-19 03:00:00 23 4 Oeste 8 Sudoeste 0 -- -- 87
2020-09-19 02:00:00 23.4 3 Oeste 7 Oeste 0 -- -- 86
2020-09-19 01:00:00 23.3 0 Calma 9 Nordeste 0 -- -- 85
2020-09-19 00:00:00 23.4 4 Este 8 Nordeste 0 -- -- 81
2020-09-18 23:00:00 24 2 Este 6 Nordeste 0 -- -- 79
2020-09-18 22:00:00 24 0 Calma 10 Nordeste 0 -- -- 76
2020-09-18 21:00:00 24.3 4 Este 11 Sudeste 0 -- -- 73
2020-09-18 20:00:00 24.5 5 Este 14 Este 0 -- -- 70
2020-09-18 19:00:00 24.7 4 Este 12 Sudeste 0 -- -- 73
2020-09-18 18:00:00 25 4 Sudeste 11 Este 0 -- -- 65
2020-09-18 17:00:00 25.5 5 Sudeste 12 Sudeste 0 -- -- 66
2020-09-18 16:00:00 24 4 Este 22 Este 0 -- -- 69
2020-09-18 15:00:00 22.6 8 Este 15 Este 0.2 -- -- 76
2020-09-18 14:00:00 22.2 6 Oeste 25 Oeste 2 -- -- 82
2020-09-18 13:00:00 26 3 Sudeste 8 Sudeste 0 -- -- 78
2020-09-18 12:00:00 26.4 3 Sudeste 7 Sudeste 0 -- -- 71
2020-09-18 11:00:00 24.7 4 Sudeste 6 Sudeste 0 -- -- 66
2020-09-18 10:00:00 24.7 3 Sudeste 5 Sudoeste 0 -- -- 68
2020-09-18 09:00:00 23.8 0 Calma 4 Sudeste 0 -- -- 71
2020-09-18 08:00:00 23.3 2 Sudeste 5 Sudoeste 0 -- -- 77
2020-09-18 07:00:00 23.1 2 Oeste 5 Sudoeste 0 -- -- 75
2020-09-18 06:00:00 23.2 3 Oeste 4 Noroeste 0 -- -- 73
2020-09-18 05:00:00 23.2 4 Oeste 8 Noroeste 0 -- -- 70
2020-09-18 04:00:00 23.2 0 Calma 4 Oeste 0 -- -- 79
2020-09-18 03:00:00 23.9 0 Calma 5 Este 0 -- -- 72
2020-09-18 02:00:00 24.7 0 Calma 9 Oeste 0 -- -- 72
2020-09-18 01:00:00 25.1 5 Oeste 13 Noroeste 0 -- -- 79
2020-09-18 00:00:00 25.1 8 Oeste 17 Oeste 0 -- -- 83
2020-09-17 23:00:00 25.4 8 Oeste 21 Oeste 0 -- -- 81
2020-09-17 22:00:00 25.8 3 Oeste 13 Oeste 0 -- -- 69
2020-09-17 21:00:00 25.8 6 Oeste 24 Sudoeste 0 -- -- 73
2020-09-17 20:00:00 26 9 Oeste 24 Oeste 0 -- -- 69
2020-09-17 19:00:00 26 13 Oeste 27 Oeste 0 -- -- 75
2020-09-17 18:00:00 26.9 9 Oeste 18 Oeste 0 -- -- 69
2020-09-17 17:00:00 28 9 Oeste 25 Noroeste 0 -- -- 67
2020-09-17 16:00:00 27.8 5 Oeste 18 Oeste 0 -- -- 63
2020-09-17 15:00:00 28 12 Oeste 24 Oeste 0 -- -- 60
2020-09-17 14:00:00 29.1 5 Oeste 11 Sudeste 0 -- -- 47
2020-09-17 13:00:00 27.9 4 Sudeste 9 Sudeste 0 -- -- 52
2020-09-17 12:00:00 26.6 4 Sudoeste 8 Oeste 0 -- -- 53
2020-09-17 11:00:00 25.3 3 Sur 11 Sudeste 0 -- -- 63
2020-09-17 10:00:00 26 3 Sudeste 6 Sudeste 0 -- -- 64
2020-09-17 09:00:00 23.6 0 Calma 5 Noroeste 0 -- -- 69
2020-09-17 08:00:00 23 0 Calma 8 Noroeste 0 -- -- 68
2020-09-17 07:00:00 22.4 0 Calma 6 Noroeste 0 -- -- 72
2020-09-17 06:00:00 22.6 3 Noroeste 7 Noroeste 0 -- -- 71
2020-09-17 05:00:00 23.2 5 Noroeste 9 Noroeste 0 -- -- 70
2020-09-17 04:00:00 23.1 2 Oeste 6 Oeste 0 -- -- 72
2020-09-17 03:00:00 23.6 4 Noroeste 7 Oeste 0 -- -- 71
2020-09-17 02:00:00 23.4 2 Oeste 5 Noroeste 0 -- -- 73
2020-09-17 01:00:00 24.1 0 Calma 9 Oeste 0 -- -- 72
2020-09-17 00:00:00 24.5 6 Oeste 12 Noroeste 0 -- -- 68
2020-09-16 23:00:00 25.3 3 Oeste 6 Oeste 0 -- -- 66
2020-09-16 22:00:00 25.6 4 Oeste 8 Noroeste 0 -- -- 64
2020-09-16 21:00:00 25.7 4 Oeste 11 Oeste 0 -- -- 69
2020-09-16 20:00:00 26.2 4 Sudoeste 19 Oeste 0 -- -- 71
2020-09-16 19:00:00 27.3 9 Oeste 21 Oeste 0 -- -- 68
2020-09-16 18:00:00 27.8 11 Oeste 25 Oeste 0 -- -- 66
2020-09-16 17:00:00 28.7 9 Oeste 21 Sudoeste 0 -- -- 58
2020-09-16 16:00:00 27.7 9 Sudoeste 21 Sudoeste 0 -- -- 71
2020-09-16 15:00:00 27.8 10 Sudoeste 21 Sudoeste 0 -- -- 66
2020-09-16 14:00:00 28.1 4 Nordeste 10 Sudoeste 0 -- -- 70
2020-09-16 13:00:00 26.6 8 Sudeste 14 Sudeste 0 -- -- 73
2020-09-16 12:00:00 26.6 5 Sudeste 13 Sudeste 0 -- -- 72
2020-09-16 11:00:00 25.7 3 Este 8 Sudeste 0 -- -- 73
2020-09-16 10:00:00 24.8 6 Sudeste 10 Sudeste 0 -- -- 77
2020-09-16 09:00:00 23.2 2 Este 4 Nordeste 0 -- -- 84
2020-09-16 08:00:00 22.1 0 Calma 4 Sudoeste 0 -- -- 87
2020-09-16 07:00:00 22.1 0 Calma 4 Sudeste 0 -- -- 85
2020-09-16 06:00:00 22.4 0 Calma 3 Sudoeste 0 -- -- 85
2020-09-16 05:00:00 23.1 3 Oeste 7 Oeste 0 -- -- 83
2020-09-16 04:00:00 23.4 5 Oeste 9 Oeste 0 -- -- 82
2020-09-16 03:00:00 23.3 4 Oeste 7 Oeste 0 -- -- 81
2020-09-16 02:00:00 23.4 2 Oeste 7 Oeste 0 -- -- 81
2020-09-16 01:00:00 23.7 4 Oeste 6 Oeste 0 -- -- 80
2020-09-16 00:00:00 24 4 Oeste 6 Oeste 0 -- -- 83
2020-09-15 23:00:00 24.6 3 Sudoeste 8 Oeste 0 -- -- 80
2020-09-15 22:00:00 25 4 Oeste 10 Oeste 0 -- -- 78
2020-09-15 21:00:00 25.3 6 Oeste 12 Oeste 0 -- -- 77
2020-09-15 20:00:00 25.7 9 Oeste 18 Oeste 0 -- -- 76
2020-09-15 19:00:00 26.9 8 Oeste 23 Noroeste 0 -- -- 72
2020-09-15 18:00:00 27.3 12 Sudoeste 24 Oeste 0 -- -- 71
2020-09-15 17:00:00 27.4 10 Oeste 23 Sudoeste 0 -- -- 73
2020-09-15 16:00:00 28 11 Oeste 27 Sudoeste 0 -- -- 67
2020-09-15 15:00:00 27.6 13 Oeste 24 Sudoeste 0 -- -- 67
2020-09-15 14:00:00 28 12 Oeste 25 Oeste 0 -- -- 65
2020-09-15 13:00:00 27.5 12 Sudoeste 21 Sudoeste 0 -- -- 65
2020-09-15 12:00:00 26.5 7 Oeste 17 Oeste 0 -- -- 71
2020-09-15 11:00:00 24.9 9 Oeste 16 Sudoeste 0 -- -- 67
2020-09-15 10:00:00 24 3 Oeste 9 Oeste 0 -- -- 63
2020-09-15 09:00:00 23.2 0 Calma 4 Sudeste 0 -- -- 79
2020-09-15 08:00:00 21.5 0 Calma 3 Oeste 0 -- -- 86
2020-09-15 07:00:00 21.3 0 Calma 3 Oeste 0 -- -- 82
2020-09-15 06:00:00 21.5 0 Calma 4 Sudeste 0 -- -- 83
2020-09-15 05:00:00 22.1 2 Oeste 6 Noroeste 0 -- -- 78
2020-09-15 04:00:00 22.2 0 Calma 6 Oeste 0 -- -- 81
2020-09-15 03:00:00 22.7 0 Calma 5 Oeste 0 -- -- 85
2020-09-15 02:00:00 23.4 2 Oeste 7 Oeste 0 -- -- 87
2020-09-15 01:00:00 23.7 3 Oeste 7 Oeste 0 -- -- 87
2020-09-15 00:00:00 23.9 3 Oeste 6 Oeste 0 -- -- 87
2020-09-14 23:00:00 24.4 4 Oeste 9 Noroeste 0 -- -- 85
2020-09-14 22:00:00 24.7 4 Oeste 8 Oeste 0 -- -- 84
2020-09-14 21:00:00 24.8 4 Oeste 10 Oeste 0 -- -- 83
2020-09-14 20:00:00 25.3 6 Oeste 12 Oeste 0 -- -- 79
2020-09-14 19:00:00 26.7 3 Nordeste 12 Sudoeste 0 -- -- 75
2020-09-14 18:00:00 27.1 4 Este 15 Sudoeste 0 -- -- 72
2020-09-14 17:00:00 27.5 5 Sudoeste 15 Sudoeste 0 -- -- 69
2020-09-14 16:00:00 26.8 9 Oeste 19 Sudoeste 0 -- -- 71
2020-09-14 15:00:00 27.6 6 Este 15 Sudeste 0 -- -- 69
2020-09-14 14:00:00 27.1 6 Sudeste 13 Sudeste 0 -- -- 70
2020-09-14 13:00:00 27.4 4 Este 12 Sudeste 0 -- -- 63
2020-09-14 12:00:00 26.8 4 Sudeste 10 Sudeste 0 -- -- 58
2020-09-14 11:00:00 26 3 Este 8 Sudeste 0 -- -- 61
2020-09-14 10:00:00 24.7 2 Sudeste 8 Sudeste 0 -- -- 69
2020-09-14 09:00:00 22.2 0 Calma 4 Este 0.2 -- -- 77
2020-09-14 08:00:00 21.5 0 Calma 8 Noroeste 0.4 -- -- 83
2020-09-14 07:00:00 22 5 Oeste 9 Noroeste 0 -- -- 77
2020-09-14 06:00:00 21.4 0 Calma 5 Este 0 -- -- 77
2020-09-14 05:00:00 21.7 0 Calma 4 Sur 0 -- -- 82
2020-09-14 04:00:00 22 0 Calma 3 Este 0 -- -- 79
2020-09-14 03:00:00 22.4 0 Calma 4 Nordeste 0 -- -- 80
2020-09-14 02:00:00 22.6 0 Calma 5 Sudeste 0 -- -- 76
2020-09-14 01:00:00 23.1 2 Sudeste 4 Sudeste 0 -- -- 77
2020-09-14 00:00:00 23.6 0 Calma 4 Sudoeste 0 -- -- 77
2020-09-13 23:00:00 24.1 2 Oeste 5 Oeste 0 -- -- 73
2020-09-13 22:00:00 24.6 2 Sudoeste 6 Oeste 0 -- -- 66
2020-09-13 21:00:00 25.2 4 Oeste 6 Oeste 0 -- -- 62
2020-09-13 20:00:00 25.8 4 Oeste 10 Sudoeste 0 -- -- 65
2020-09-13 19:00:00 27.1 6 Sudoeste 13 Sudoeste 0 -- -- 61
2020-09-13 18:00:00 28.4 4 Este 12 Este 0 -- -- 59
2020-09-13 17:00:00 28.2 4 Este 15 Sudoeste 0 -- -- 59
2020-09-13 16:00:00 29.1 6 Oeste 14 Sudoeste 0 -- -- 57
2020-09-13 15:00:00 29 5 Sudeste 13 Sudeste 0 -- -- 53
2020-09-13 14:00:00 29.4 5 Oeste 14 Sudeste 0 -- -- 45
2020-09-13 13:00:00 29.6 4 Oeste 10 Sudeste 0 -- -- 43
2020-09-13 12:00:00 29.4 3 Este 9 Este 0 -- -- 46
2020-09-13 11:00:00 28 3 Sudeste 11 Este 0 -- -- 49
2020-09-13 10:00:00 25.6 5 Este 9 Este 0 -- -- 55
2020-09-13 09:00:00 23 4 Oeste 8 Noroeste 0 -- -- 66
2020-09-13 08:00:00 21 2 Oeste 3 Oeste 0.4 -- -- 78
2020-09-13 07:00:00 21.7 0 Calma 5 Noroeste 0 -- -- 68
2020-09-13 06:00:00 21.9 0 Calma 4 Sudeste 0 -- -- 72
2020-09-13 05:00:00 22.3 0 Calma 4 Sur 0 -- -- 72
2020-09-13 04:00:00 22.7 0 Calma 4 Sudeste 0 -- -- 69
2020-09-13 03:00:00 23.4 2 Sudeste 6 Sudeste 0 -- -- 71
2020-09-13 02:00:00 23.7 2 Sudoeste 6 Noroeste 0 -- -- 63
2020-09-13 01:00:00 24.1 0 Calma 5 Oeste 0 -- -- 61
2020-09-13 00:00:00 24.9 4 Oeste 7 Noroeste 0 -- -- 56
2020-09-12 23:00:00 25.4 5 Oeste 6 Noroeste 0 -- -- 56
2020-09-12 22:00:00 25.6 5 Oeste 7 Noroeste 0 -- -- 58
2020-09-12 21:00:00 26.1 4 Oeste 8 Oeste 0 -- -- 56
2020-09-12 20:00:00 27.1 3 Oeste 8 Noroeste 0 -- -- 48
2020-09-12 19:00:00 28.2 6 Oeste 17 Sur 0 -- -- 49
2020-09-12 18:00:00 28.4 3 Sudeste 14 Sudoeste 0 -- -- 48
2020-09-12 17:00:00 28.7 9 Sudoeste 18 Sudoeste 0 -- -- 47
2020-09-12 16:00:00 29.5 3 Sudoeste 16 Sudoeste 0 -- -- 51
2020-09-12 15:00:00 29.2 4 Sudeste 13 Sudeste 0 -- -- 52
2020-09-12 14:00:00 28.5 4 Este 15 Sudeste 0 -- -- 54
2020-09-12 13:00:00 28.2 6 Sudeste 12 Sudeste 0 -- -- 50
2020-09-12 12:00:00 27.4 3 Sudeste 10 Este 0 -- -- 57
2020-09-12 11:00:00 26.1 3 Norte 7 Sudoeste 0 -- -- 62
2020-09-12 10:00:00 25.1 2 Este 5 Sur 0 -- -- 69
2020-09-12 09:00:00 22.1 2 Sudoeste 5 Sudoeste 0 -- -- 74
2020-09-12 08:00:00 21.3 0 Calma 4 Oeste 0.6 -- -- 79
2020-09-12 07:00:00 22.7 4 Oeste 8 Oeste 0 -- -- 63
2020-09-12 06:00:00 22.7 3 Sudoeste 14 Oeste 0 -- -- 65
2020-09-12 05:00:00 22.4 6 Oeste 10 Noroeste 0 -- -- 68
2020-09-12 04:00:00 22.5 0 Calma 4 Noroeste 0 -- -- 70
2020-09-12 03:00:00 23.2 3 Oeste 8 Oeste 0 -- -- 67
2020-09-12 02:00:00 23.7 4 Oeste 8 Oeste 0 -- -- 68
2020-09-12 01:00:00 23.9 3 Oeste 8 Oeste 0 -- -- 71
2020-09-12 00:00:00 24.1 3 Oeste 5 Noroeste 0 -- -- 68
2020-09-11 23:00:00 24.5 3 Oeste 7 Oeste 0 -- -- 68
2020-09-11 22:00:00 24.6 4 Oeste 6 Oeste 0 -- -- 65
2020-09-11 21:00:00 25.1 3 Oeste 10 Sudeste 0 -- -- 63
2020-09-11 20:00:00 25.7 5 Sudeste 13 Sudeste 0 -- -- 61
2020-09-11 19:00:00 27 5 Este 15 Sur 0 -- -- 59
2020-09-11 18:00:00 27.6 5 Este 18 Oeste 0 -- -- 65
2020-09-11 17:00:00 28.9 4 Sur 15 Sudoeste 0 -- -- 51
2020-09-11 16:00:00 28.2 6 Oeste 26 Oeste 0 -- -- 55
2020-09-11 15:00:00 29.4 9 Sudoeste 23 Sudoeste 0 -- -- 44
2020-09-11 14:00:00 29.1 4 Este 12 Sudeste 0 -- -- 55
2020-09-11 13:00:00 28.7 3 Este 9 Sudeste 0 -- -- 52
2020-09-11 12:00:00 28.5 3 Este 8 Sudeste 0 -- -- 51
2020-09-11 11:00:00 26.5 3 Sudoeste 10 Oeste 0 -- -- 52
2020-09-11 10:00:00 24.9 6 Oeste 10 Oeste 0 -- -- 56
2020-09-11 09:00:00 22.5 2 Sudeste 7 Oeste 0 -- -- 69
2020-09-11 08:00:00 20.9 3 Oeste 9 Oeste 0.6 -- -- 75
2020-09-11 07:00:00 21.7 4 Oeste 10 Noroeste 0 -- -- 66
2020-09-11 06:00:00 21.3 0 Calma 10 Oeste 0 -- -- 68
2020-09-11 05:00:00 22.1 5 Noroeste 13 Noroeste 0 -- -- 65
2020-09-11 04:00:00 22.4 7 Noroeste 10 Noroeste 0 -- -- 65
2020-09-11 03:00:00 22.5 4 Oeste 13 Este 0 -- -- 65
2020-09-11 02:00:00 22.7 3 Sudoeste 13 Oeste 0 -- -- 64
2020-09-11 01:00:00 23 6 Oeste 12 Noroeste 0 -- -- 62
2020-09-11 00:00:00 23 4 Oeste 12 Noroeste 0 -- -- 62
2020-09-10 23:00:00 22.9 8 Oeste 14 Oeste 0 -- -- 62
2020-09-10 22:00:00 23 5 Oeste 14 Oeste 0 -- -- 62
2020-09-10 21:00:00 22.8 6 Oeste 15 Oeste 0 -- -- 67
2020-09-10 20:00:00 23.4 3 Oeste 12 Oeste 0 -- -- 70
2020-09-10 19:00:00 23.6 6 Oeste 17 Oeste 0 -- -- 72
2020-09-10 18:00:00 24.8 9 Oeste 16 Oeste 0 -- -- 68
2020-09-10 17:00:00 26.4 5 Este 21 Sudoeste 0 -- -- 65
2020-09-10 16:00:00 26.7 12 Oeste 26 Sudoeste 0 -- -- 59
2020-09-10 15:00:00 27.3 14 Sudoeste 25 Sudoeste 0 -- -- 54
2020-09-10 14:00:00 26.9 10 Oeste 23 Sudoeste 0 -- -- 56
2020-09-10 13:00:00 26.9 5 Oeste 16 Oeste 0 -- -- 53
2020-09-10 12:00:00 25.6 3 Este 11 Sudeste 0 -- -- 61
2020-09-10 11:00:00 23.9 4 Oeste 13 Oeste 0 -- -- 64
2020-09-10 10:00:00 22.2 4 Oeste 10 Oeste 0 -- -- 74
2020-09-10 09:00:00 19.5 0 Calma 7 Oeste 0 -- -- 86
2020-09-10 08:00:00 18.8 5 Oeste 10 Noroeste 0.4 -- -- 87
2020-09-10 07:00:00 19 2 Nordeste 8 Noroeste 0 -- -- 84
2020-09-10 06:00:00 19 4 Oeste 8 Noroeste 0 -- -- 86
2020-09-10 05:00:00 19.2 6 Noroeste 9 Noroeste 0 -- -- 86
2020-09-10 04:00:00 19.2 3 Noroeste 8 Noroeste 0 -- -- 88
2020-09-10 03:00:00 19.6 5 Noroeste 8 Noroeste 0 -- -- 88
2020-09-10 02:00:00 19.8 0 Calma 10 Nordeste 0 -- -- 88
2020-09-10 01:00:00 19.9 3 Este 6 Este 0 -- -- 88
2020-09-10 00:00:00 20.2 0 Calma 9 Este 0 -- -- 87
2020-09-09 23:00:00 20.3 2 Este 10 Nordeste 0 -- -- 89
2020-09-09 22:00:00 20.3 2 Nordeste 8 Nordeste 0.6 -- -- 90
2020-09-09 21:00:00 20.4 6 Este 18 Este 3 -- -- 86
2020-09-09 20:00:00 22 3 Este 12 Sudeste 0 -- -- 80
2020-09-09 19:00:00 22.8 6 Este 15 Sudeste 0 -- -- 76
2020-09-09 18:00:00 23.3 5 Este 21 Sudeste 0 -- -- 77
2020-09-09 17:00:00 22.6 7 Este 18 Sur 0 -- -- 79
2020-09-09 16:00:00 21.7 2 Sudoeste 9 Oeste 0.2 -- -- 90
2020-09-09 15:00:00 20.7 4 Norte 16 Noroeste 7.4 -- -- 90
2020-09-09 14:00:00 20.9 2 Este 9 Nordeste 1 -- -- 86
2020-09-09 13:00:00 20.8 4 Nordeste 9 Nordeste 0.2 -- -- 86
2020-09-09 12:00:00 20.1 4 Nordeste 11 Noroeste 0.2 -- -- 88
2020-09-09 11:00:00 19.4 3 Oeste 13 Sudoeste 2.2 -- -- 91
2020-09-09 10:00:00 19.5 3 Nordeste 12 Nordeste 0.6 -- -- 87
2020-09-09 09:00:00 19.3 5 Noroeste 16 Nordeste 0.4 -- -- 88
2020-09-09 08:00:00 19.3 4 Nordeste 12 Nordeste 0.8 -- -- 87
2020-09-09 07:00:00 19.1 5 Noroeste 14 Oeste 0.2 -- -- 89
2020-09-09 06:00:00 19 7 Oeste 14 Nordeste 5 -- -- 90
2020-09-09 05:00:00 19.7 2 Noroeste 8 Nordeste 4 -- -- 87
2020-09-09 04:00:00 20.6 4 Nordeste 17 Nordeste 1.4 -- -- 78
2020-09-09 03:00:00 22.2 4 Este 16 Nordeste 0 -- -- 62
2020-09-09 02:00:00 22.7 7 Nordeste 13 Nordeste 0 -- -- 57
2020-09-09 01:00:00 22.6 4 Nordeste 10 Nordeste 0 -- -- 55
2020-09-09 00:00:00 22.5 4 Nordeste 12 Nordeste 0 -- -- 57
2020-09-08 23:00:00 22.8 2 Nordeste 6 Nordeste 0 -- -- 56
2020-09-08 22:00:00 22.6 4 Nordeste 14 Este 0 -- -- 58
2020-09-08 21:00:00 22.9 4 Este 15 Nordeste 0 -- -- 57
2020-09-08 20:00:00 23.9 5 Este 19 Nordeste 0 -- -- 54
2020-09-08 19:00:00 24 7 Este 24 Nordeste 0 -- -- 54
2020-09-08 18:00:00 24.3 9 Este 27 Sudeste 0 -- -- 52
2020-09-08 17:00:00 25 10 Este 34 Este 0 -- -- 56
2020-09-08 16:00:00 25.6 12 Este 36 Sudeste 0 -- -- 54
2020-09-08 15:00:00 25.7 11 Sudeste 24 Sudeste 0 -- -- 52
2020-09-08 14:00:00 25.5 9 Este 21 Este 0 -- -- 50
2020-09-08 13:00:00 25.3 5 Sudeste 13 Nordeste 0 -- -- 49
2020-09-08 12:00:00 24 5 Este 14 Oeste 0 -- -- 49
2020-09-08 11:00:00 21.6 7 Oeste 11 Oeste 0 -- -- 54
2020-09-08 10:00:00 20.7 5 Oeste 13 Oeste 0 -- -- 56
2020-09-08 09:00:00 19.7 6 Oeste 12 Noroeste 0 -- -- 58
2020-09-08 08:00:00 18.7 7 Oeste 14 Oeste 0.2 -- -- 63
2020-09-08 07:00:00 19.1 4 Noroeste 10 Noroeste 0 -- -- 60
2020-09-08 06:00:00 18.9 5 Noroeste 10 Oeste 0 -- -- 62
2020-09-08 05:00:00 18.9 6 Noroeste 11 Noroeste 0 -- -- 65
2020-09-08 04:00:00 18.9 6 Noroeste 10 Noroeste 0 -- -- 67
2020-09-08 03:00:00 18.9 3 Noroeste 12 Noroeste 0 -- -- 68
2020-09-08 02:00:00 18.9 9 Noroeste 17 Noroeste 0 -- -- 69
2020-09-08 01:00:00 18.7 6 Oeste 13 Oeste 0 -- -- 74
2020-09-08 00:00:00 18.9 10 Noroeste 15 Oeste 0 -- -- 74
2020-09-07 23:00:00 18.9 6 Oeste 19 Noroeste 0 -- -- 76
2020-09-07 22:00:00 18.6 6 Oeste 14 Oeste 0.6 -- -- 80
2020-09-07 21:00:00 18.4 3 Nordeste 17 Este 3 -- -- 83
2020-09-07 20:00:00 19.4 11 Este 27 Este 0.8 -- -- 81
2020-09-07 19:00:00 22.1 6 Oeste 22 Sudoeste 0 -- -- 67
2020-09-07 18:00:00 23.7 6 Noroeste 26 Sudoeste 0 -- -- 59
2020-09-07 17:00:00 24.2 13 Oeste 33 Oeste 0 -- -- 54
2020-09-07 16:00:00 24.2 14 Sudoeste 28 Sudoeste 0 -- -- 54
2020-09-07 15:00:00 24.4 12 Oeste 23 Noroeste 0 -- -- 53
2020-09-07 14:00:00 23 12 Oeste 26 Oeste 0 -- -- 57
2020-09-07 13:00:00 22.6 11 Oeste 23 Oeste 0 -- -- 62
2020-09-07 12:00:00 22.3 10 Oeste 22 Oeste 0 -- -- 60
2020-09-07 11:00:00 20.3 9 Oeste 22 Oeste 0 -- -- 63
2020-09-07 10:00:00 19.2 6 Oeste 13 Noroeste 0 -- -- 64
2020-09-07 09:00:00 18.6 6 Oeste 15 Oeste 0 -- -- 67
2020-09-07 08:00:00 17.9 6 Oeste 15 Noroeste 0.8 -- -- 83
2020-09-07 07:00:00 19.4 4 Oeste 16 Este 0 -- -- 75
2020-09-07 06:00:00 19.5 5 Este 17 Sudeste 0 -- -- 75
2020-09-07 05:00:00 19.5 7 Este 23 Sudeste 0.2 -- -- 79
2020-09-07 04:00:00 19.7 9 Este 25 Este 0 -- -- 80
2020-09-07 03:00:00 19.7 8 Este 27 Sur 0 -- -- 82
2020-09-07 02:00:00 19.4 8 Este 23 Sudeste 0.2 -- -- 92
2020-09-07 01:00:00 19.5 5 Este 21 Sudeste 2.4 -- -- 95
2020-09-07 00:00:00 19.7 8 Este 41 Este 49.8 -- -- 95
2020-09-06 23:00:00 23.4 8 Este 23 Sudeste 3.2 -- -- 83
2020-09-06 22:00:00 24.6 9 Oeste 23 Sudoeste 0 -- -- 76
2020-09-06 21:00:00 25.3 5 Este 17 Sur 0 -- -- 75
2020-09-06 20:00:00 25.8 8 Sudoeste 15 Sudoeste 0 -- -- 63
2020-09-06 19:00:00 26.9 8 Oeste 20 Oeste 0 -- -- 59
2020-09-06 18:00:00 27.2 7 Oeste 23 Sudoeste 0 -- -- 61
2020-09-06 17:00:00 27.6 11 Sudoeste 24 Oeste 0 -- -- 62
2020-09-06 16:00:00 27.5 10 Oeste 26 Sudoeste 0 -- -- 61
2020-09-06 15:00:00 27.3 14 Sudoeste 27 Sudoeste 0 -- -- 59
2020-09-06 14:00:00 27.8 6 Noroeste 18 Sudoeste 0 -- -- 61
2020-09-06 13:00:00 28.1 4 Este 18 Sudeste 0 -- -- 64
2020-09-06 12:00:00 27.9 5 Este 14 Noroeste 0 -- -- 52
2020-09-06 11:00:00 26.5 7 Este 17 Nordeste 0 -- -- 58
2020-09-06 10:00:00 25.4 2 Sudoeste 12 Este 0 -- -- 62
2020-09-06 09:00:00 23.4 3 Este 14 Noroeste 0 -- -- 70
2020-09-06 08:00:00 23 7 Oeste 14 Noroeste 0.2 -- -- 71
2020-09-06 07:00:00 23.3 0 Calma 14 Noroeste 0 -- -- 68
2020-09-06 06:00:00 23.9 6 Oeste 13 Noroeste 0 -- -- 62
2020-09-06 05:00:00 23.6 4 Oeste 10 Oeste 0 -- -- 63
2020-09-06 04:00:00 23.2 3 Oeste 8 Oeste 0 -- -- 69
2020-09-06 03:00:00 23.6 3 Oeste 7 Noroeste 0 -- -- 70
2020-09-06 02:00:00 24.2 5 Oeste 9 Noroeste 0 -- -- 68
2020-09-06 01:00:00 24.3 3 Oeste 8 Noroeste 0 -- -- 68
2020-09-06 00:00:00 24.5 3 Oeste 10 Noroeste 0 -- -- 70
2020-09-05 23:00:00 25 6 Noroeste 15 Oeste 0 -- -- 68
2020-09-05 22:00:00 25.2 7 Oeste 15 Noroeste 0 -- -- 69
2020-09-05 21:00:00 25.1 6 Oeste 12 Sudoeste 0 -- -- 69
2020-09-05 20:00:00 25.5 6 Oeste 15 Sudoeste 0 -- -- 67
2020-09-05 19:00:00 26.7 7 Oeste 19 Sudoeste 0 -- -- 64
2020-09-05 18:00:00 27.5 4 Nordeste 15 Oeste 0 -- -- 64
2020-09-05 17:00:00 27.9 4 Este 19 Sudoeste 0 -- -- 61
2020-09-05 16:00:00 27.9 5 Noroeste 16 Sudoeste 0 -- -- 63
2020-09-05 15:00:00 28.1 4 Nordeste 11 Oeste 0 -- -- 63
2020-09-05 14:00:00 27.5 7 Oeste 17 Oeste 0 -- -- 66
2020-09-05 13:00:00 27.2 6 Oeste 17 Oeste 0 -- -- 66
2020-09-05 12:00:00 27 3 Sudeste 13 Sudeste 0 -- -- 69
2020-09-05 11:00:00 25.7 7 Sudeste 13 Sudeste 0 -- -- 71
2020-09-05 10:00:00 23.9 5 Oeste 9 Oeste 0 -- -- 77
2020-09-05 09:00:00 22.6 3 Este 5 Nordeste 0 -- -- 81
2020-09-05 08:00:00 21.9 2 Oeste 4 Oeste 0.6 -- -- 86
2020-09-05 07:00:00 22.3 0 Calma 2 Oeste 0 -- -- 82
2020-09-05 06:00:00 22.4 0 Calma 4 Oeste 0 -- -- 80
2020-09-05 05:00:00 22.7 0 Calma 5 Oeste 0 -- -- 78
2020-09-05 04:00:00 23.1 3 Oeste 4 Noroeste 0 -- -- 76
2020-09-05 03:00:00 23.5 2 Oeste 7 Oeste 0 -- -- 75
2020-09-05 02:00:00 23.9 3 Oeste 5 Oeste 0 -- -- 74
2020-09-05 01:00:00 24.2 4 Oeste 6 Oeste 0 -- -- 73
2020-09-05 00:00:00 24.5 4 Oeste 7 Oeste 0 -- -- 73
2020-09-04 23:00:00 24.8 4 Oeste 8 Oeste 0 -- -- 72
2020-09-04 22:00:00 25 5 Oeste 10 Sudoeste 0 -- -- 71
2020-09-04 21:00:00 25.3 6 Oeste 14 Noroeste 0 -- -- 70
2020-09-04 20:00:00 25.9 8 Oeste 16 Sudoeste 0 -- -- 67
2020-09-04 19:00:00 27.2 9 Sudoeste 19 Sudoeste 0 -- -- 61
2020-09-04 18:00:00 27.6 10 Sudoeste 23 Sudoeste 0 -- -- 67
2020-09-04 17:00:00 28.2 8 Sudoeste 23 Sudoeste 0 -- -- 62
2020-09-04 16:00:00 28.6 8 Sudoeste 22 Sudoeste 0 -- -- 61
2020-09-04 15:00:00 28.1 5 Nordeste 14 Oeste 0 -- -- 63
2020-09-04 14:00:00 27.3 8 Sudeste 15 Este 0 -- -- 65
2020-09-04 13:00:00 27.1 6 Sudeste 14 Sudeste 0 -- -- 64
2020-09-04 12:00:00 27 5 Sudeste 14 Sudeste 0 -- -- 63
2020-09-04 11:00:00 26.2 8 Sudeste 13 Sudeste 0 -- -- 64
2020-09-04 10:00:00 24.8 3 Este 11 Este 0 -- -- 66
2020-09-04 09:00:00 22.3 2 Este 10 Nordeste 0 -- -- 75
2020-09-04 08:00:00 21.3 4 Este 9 Nordeste 0.6 -- -- 79
2020-09-04 07:00:00 22 0 Calma 5 Nordeste 0 -- -- 76
2020-09-04 06:00:00 22.5 0 Calma 5 Oeste 0 -- -- 76
2020-09-04 05:00:00 22.8 3 Oeste 7 Oeste 0 -- -- 75
2020-09-04 04:00:00 22.8 4 Oeste 6 Oeste 0 -- -- 77
2020-09-04 03:00:00 23 2 Oeste 5 Oeste 0 -- -- 77
2020-09-04 02:00:00 23.5 4 Nordeste 8 Este 0 -- -- 73
2020-09-04 01:00:00 24 4 Este 9 Nordeste 0 -- -- 71
2020-09-04 00:00:00 23.9 0 Calma 5 Noroeste 0 -- -- 72
2020-09-03 23:00:00 24.1 0 Calma 5 Oeste 0 -- -- 72
2020-09-03 22:00:00 24.6 3 Oeste 13 Oeste 0 -- -- 69
2020-09-03 21:00:00 25 7 Oeste 14 Oeste 0 -- -- 66
2020-09-03 20:00:00 25.5 8 Oeste 17 Sudoeste 0 -- -- 64
2020-09-03 19:00:00 26.6 6 Oeste 20 Sudoeste 0 -- -- 65
2020-09-03 18:00:00 27.3 5 Oeste 22 Sudoeste 0 -- -- 60
2020-09-03 17:00:00 27.7 6 Noroeste 19 Norte 0 -- -- 58
2020-09-03 16:00:00 27.1 6 Noroeste 18 Oeste 0 -- -- 60
2020-09-03 15:00:00 27.8 6 Noroeste 19 Oeste 0 -- -- 58
2020-09-03 14:00:00 28 5 Este 15 Oeste 0 -- -- 59
2020-09-03 13:00:00 27.5 5 Este 18 Sudeste 0 -- -- 61
2020-09-03 12:00:00 27 6 Sudeste 17 Sudeste 0 -- -- 62
2020-09-03 11:00:00 26 6 Sudeste 15 Sudeste 0 -- -- 67
2020-09-03 10:00:00 24.4 4 Este 14 Nordeste 0 -- -- 71
2020-09-03 09:00:00 22.1 4 Nordeste 9 Nordeste 0 -- -- 73
2020-09-03 08:00:00 20.8 4 Este 8 Nordeste 0.4 -- -- 77
2020-09-03 07:00:00 21.5 2 Nordeste 4 Nordeste 0 -- -- 73
2020-09-03 06:00:00 22.1 3 Nordeste 6 Este 0 -- -- 70
2020-09-03 05:00:00 22.2 0 Calma 7 Nordeste 0 -- -- 70
2020-09-03 04:00:00 22 0 Calma 5 Nordeste 0 -- -- 71
2020-09-03 03:00:00 22.5 0 Calma 5 Oeste 0 -- -- 69
2020-09-03 02:00:00 22.9 4 Oeste 5 Noroeste 0 -- -- 68
2020-09-03 01:00:00 23 3 Oeste 4 Oeste 0 -- -- 67
2020-09-03 00:00:00 23.2 3 Oeste 5 Oeste 0 -- -- 66
2020-09-02 23:00:00 23.7 3 Oeste 5 Oeste 0 -- -- 64
2020-09-02 22:00:00 24.1 4 Oeste 11 Oeste 0 -- -- 62
2020-09-02 21:00:00 24.3 7 Oeste 16 Oeste 0 -- -- 61
2020-09-02 20:00:00 24.7 8 Oeste 23 Oeste 0 -- -- 60
2020-09-02 19:00:00 25.5 12 Oeste 28 Oeste 0 -- -- 59
2020-09-02 18:00:00 25.9 14 Oeste 29 Oeste 0 -- -- 58
2020-09-02 17:00:00 25.9 12 Oeste 31 Sudoeste 0 -- -- 57
2020-09-02 16:00:00 25.9 15 Oeste 33 Sudoeste 0 -- -- 57
2020-09-02 15:00:00 26.3 14 Oeste 30 Noroeste 0 -- -- 53
2020-09-02 14:00:00 26.1 14 Sudoeste 32 Sudoeste 0 -- -- 53
2020-09-02 13:00:00 25.4 12 Sudoeste 22 Oeste 0 -- -- 58
2020-09-02 12:00:00 25.1 11 Oeste 22 Sudoeste 0 -- -- 55
2020-09-02 11:00:00 24.4 5 Oeste 15 Sudoeste 0 -- -- 58
2020-09-02 10:00:00 23.7 3 Norte 10 Oeste 0 -- -- 63
2020-09-02 09:00:00 21.2 2 Nordeste 5 Nordeste 0 -- -- 71
2020-09-02 08:00:00 20.7 3 Nordeste 8 Nordeste 0.6 -- -- 72
2020-09-02 07:00:00 21.1 4 Nordeste 6 Este 0 -- -- 67
2020-09-02 06:00:00 21.2 3 Este 8 Nordeste 0 -- -- 67
2020-09-02 05:00:00 21.3 3 Este 5 Este 0 -- -- 71
2020-09-02 04:00:00 21.6 4 Este 7 Este 0 -- -- 70
2020-09-02 03:00:00 21.8 3 Este 15 Sudeste 0 -- -- 69
2020-09-02 02:00:00 21.7 4 Este 11 Sudeste 0 -- -- 69
2020-09-02 01:00:00 21.9 5 Este 18 Sudeste 0 -- -- 73
2020-09-02 00:00:00 22.2 7 Este 22 Este 0 -- -- 70
2020-09-01 23:00:00 23.4 4 Este 11 Nordeste 0 -- -- 64
2020-09-01 22:00:00 23.4 5 Este 15 Este 0 -- -- 65
2020-09-01 21:00:00 24.5 5 Oeste 9 Oeste 0 -- -- 65
2020-09-01 20:00:00 24.7 5 Oeste 11 Oeste 0 -- -- 64
2020-09-01 19:00:00 24.8 8 Oeste 18 Oeste 0 -- -- 62
2020-09-01 18:00:00 25.2 8 Oeste 19 Oeste 0 -- -- 61
2020-09-01 17:00:00 25.4 8 Oeste 19 Sudoeste 0 -- -- 60
2020-09-01 16:00:00 25.8 4 Nordeste 13 Oeste 0 -- -- 60
2020-09-01 15:00:00 25.9 6 Este 16 Sudeste 0 -- -- 58
2020-09-01 14:00:00 26.4 5 Este 17 Este 0 -- -- 59
2020-09-01 13:00:00 25.7 8 Sudeste 21 Este 0 -- -- 62
2020-09-01 12:00:00 25.5 8 Sudeste 18 Sudeste 0 -- -- 61
2020-09-01 11:00:00 25 5 Este 9 Sudeste 0 -- -- 59
2020-09-01 10:00:00 23.4 3 Este 8 Sudeste 0 -- -- 59
2020-09-01 09:00:00 20.2 3 Este 6 Nordeste 0 -- -- 66
2020-09-01 08:00:00 19.3 2 Nordeste 6 Nordeste 0.6 -- -- 74
2020-09-01 07:00:00 19.7 0 Calma 4 Noroeste 0 -- -- 66
2020-09-01 06:00:00 20.4 4 Oeste 7 Nordeste 0 -- -- 63
2020-09-01 05:00:00 20.8 0 Calma 6 Este 0 -- -- 60
2020-09-01 04:00:00 21.3 0 Calma 9 Nordeste 0 -- -- 59
2020-09-01 03:00:00 21.3 0 Calma 6 Noroeste 0 -- -- 62
2020-09-01 02:00:00 21.7 2 Nordeste 5 Este 0 -- -- 59
2020-09-01 01:00:00 22.1 2 Este 9 Nordeste 0 -- -- 57
2020-09-01 00:00:00 22.2 2 Nordeste 6 Nordeste 0 -- -- 57
2020-08-31 23:00:00 22.6 3 Este 16 Oeste 0 -- -- 57
2020-08-31 22:00:00 23.1 8 Oeste 18 Oeste 0 -- -- 56
2020-08-31 21:00:00 23.6 11 Oeste 26 Oeste 0 -- -- 54
2020-08-31 20:00:00 24.1 13 Oeste 26 Oeste 0 -- -- 49
2020-08-31 19:00:00 25 15 Oeste 29 Oeste 0 -- -- 51
2020-08-31 18:00:00 25 18 Oeste 31 Oeste 0 -- -- 47
2020-08-31 17:00:00 25.1 17 Oeste 29 Oeste 0 -- -- 49
2020-08-31 16:00:00 25.6 13 Sudoeste 33 Sudoeste 0 -- -- 45
2020-08-31 15:00:00 25.1 17 Oeste 36 Sudoeste 0 -- -- 49
2020-08-31 14:00:00 25 17 Oeste 34 Oeste 0 -- -- 51
2020-08-31 13:00:00 24.9 13 Oeste 26 Sudoeste 0 -- -- 49
2020-08-31 12:00:00 23.6 8 Oeste 16 Oeste 0 -- -- 49
2020-08-31 11:00:00 22.8 3 Sudeste 18 Oeste 0 -- -- 46
2020-08-31 10:00:00 20.5 5 Oeste 16 Noroeste 0 -- -- 54
2020-08-31 09:00:00 17.9 8 Oeste 14 Oeste 0 -- -- 60
2020-08-31 08:00:00 17.3 6 Oeste 13 Oeste 0.4 -- -- 68
2020-08-31 07:00:00 18.2 6 Oeste 12 Oeste 0 -- -- 64
2020-08-31 06:00:00 18.5 5 Oeste 14 Noroeste 0 -- -- 66
2020-08-31 05:00:00 18.6 6 Noroeste 12 Oeste 0 -- -- 66
2020-08-31 04:00:00 18.4 3 Noroeste 14 Nordeste 0 -- -- 69
2020-08-31 03:00:00 18.4 6 Este 14 Nordeste 0 -- -- 72
2020-08-31 02:00:00 18.8 6 Oeste 18 Oeste 0 -- -- 73
2020-08-31 01:00:00 18.2 2 Este 14 Nordeste 0 -- -- 73
2020-08-31 00:00:00 17.8 5 Este 21 Nordeste 0.8 -- -- 79
2020-08-30 23:00:00 18.2 5 Nordeste 17 Sudeste 1.8 -- -- 81
2020-08-30 22:00:00 19.8 4 Este 30 Este 0.4 -- -- 76
2020-08-30 21:00:00 23.1 5 Nordeste 19 Sudoeste 0 -- -- 66
2020-08-30 20:00:00 23.3 6 Oeste 15 Oeste 0 -- -- 61
2020-08-30 19:00:00 24.6 8 Sudoeste 18 Sudoeste 0 -- -- 57
2020-08-30 18:00:00 24.9 5 Oeste 22 Sudoeste 0 -- -- 58
2020-08-30 17:00:00 25 8 Oeste 20 Sudoeste 0 -- -- 57
2020-08-30 16:00:00 25.1 5 Norte 17 Sudoeste 0 -- -- 59
2020-08-30 15:00:00 25.6 5 Nordeste 15 Oeste 0 -- -- 55
2020-08-30 14:00:00 24.9 6 Oeste 18 Sudoeste 0 -- -- 56
2020-08-30 13:00:00 25.2 5 Este 16 Sudeste 0 -- -- 54
2020-08-30 12:00:00 24 4 Este 15 Oeste 0 -- -- 53
2020-08-30 11:00:00 22.4 8 Oeste 14 Oeste 0 -- -- 55
2020-08-30 10:00:00 20.2 8 Oeste 13 Noroeste 0 -- -- 59
2020-08-30 09:00:00 18.6 8 Oeste 12 Noroeste 0 -- -- 63
2020-08-30 08:00:00 17.7 8 Oeste 14 Oeste 0.2 -- -- 67
2020-08-30 07:00:00 18.4 6 Oeste 12 Oeste 0 -- -- 63
2020-08-30 06:00:00 18.8 6 Oeste 16 Noroeste 0 -- -- 62
2020-08-30 05:00:00 18.7 8 Oeste 14 Noroeste 0 -- -- 65
2020-08-30 04:00:00 19 7 Oeste 14 Noroeste 0 -- -- 66
2020-08-30 03:00:00 18.9 3 Nordeste 24 Nordeste 0 -- -- 70
2020-08-30 02:00:00 20.1 5 Este 11 Nordeste 0 -- -- 73
2020-08-30 01:00:00 19.9 4 Oeste 7 Oeste 0 -- -- 77
2020-08-30 00:00:00 19.9 3 Oeste 6 Oeste 0 -- -- 77
2020-08-29 23:00:00 19.7 2 Nordeste 9 Nordeste 0 -- -- 75
2020-08-29 22:00:00 19.9 3 Este 13 Nordeste 0 -- -- 74
2020-08-29 21:00:00 19.3 3 Sudeste 6 Sudeste 0 -- -- 74
2020-08-29 20:00:00 19.4 3 Sudeste 12 Sudeste 0 -- -- 73
2020-08-29 19:00:00 19.2 3 Sudeste 14 Sudoeste 0.8 -- -- 77
2020-08-29 18:00:00 20.3 4 Oeste 15 Noroeste 0.8 -- -- 78
2020-08-29 17:00:00 22.6 4 Este 20 Sudeste 0 -- -- 60
2020-08-29 16:00:00 23.5 10 Sudeste 22 Sudeste 0 -- -- 61
2020-08-29 15:00:00 22.7 5 Sur 16 Sudeste 0 -- -- 67
2020-08-29 14:00:00 21.6 8 Sudeste 18 Sudeste 0 -- -- 69
2020-08-29 13:00:00 20.5 5 Este 17 Nordeste 0 -- -- 70
2020-08-29 12:00:00 19.7 7 Este 19 Nordeste 0 -- -- 79
2020-08-29 11:00:00 19.1 6 Este 14 Este 0 -- -- 85
2020-08-29 10:00:00 18.6 5 Este 15 Este 0.2 -- -- 88
2020-08-29 09:00:00 18 9 Este 18 Nordeste 0.6 -- -- 90
2020-08-29 08:00:00 18.2 7 Nordeste 16 Nordeste 0.6 -- -- 90
2020-08-29 07:00:00 18.5 2 Este 12 Nordeste 0.6 -- -- 89
2020-08-29 06:00:00 18.4 5 Oeste 22 Este 4 -- -- 88
2020-08-29 05:00:00 19.3 6 Este 11 Nordeste 5.2 -- -- 88
2020-08-29 04:00:00 20.3 4 Este 21 Sudeste 1.4 -- -- 87
2020-08-29 03:00:00 20.8 7 Este 27 Sudeste 2 -- -- 87
2020-08-29 02:00:00 22.3 12 Sudeste 28 Sudeste 0.8 -- -- 79
2020-08-29 01:00:00 24 11 Sudeste 27 Sudeste 0 -- -- 65
2020-08-29 00:00:00 24.5 8 Este 31 Este 0 -- -- 63
2020-08-28 23:00:00 24.7 10 Este 42 Sudeste 0 -- -- 65
2020-08-28 22:00:00 25.1 15 Este 33 Sudeste 0 -- -- 74
2020-08-28 21:00:00 25.5 11 Este 39 Sudeste 0 -- -- 76
2020-08-28 20:00:00 27.7 6 Sudeste 16 Sudeste 0 -- -- 73
2020-08-28 19:00:00 28.5 4 Oeste 21 Sudoeste 0 -- -- 72
2020-08-28 18:00:00 29.2 9 Oeste 24 Sudoeste 0 -- -- 68
2020-08-28 17:00:00 29 14 Oeste 27 Sudoeste 0 -- -- 70
2020-08-28 16:00:00 29.6 11 Sudoeste 29 Sudoeste 0 -- -- 65
2020-08-28 15:00:00 29.5 13 Sudoeste 24 Sudoeste 0 -- -- 63
2020-08-28 14:00:00 30.1 8 Oeste 18 Este 0 -- -- 65
2020-08-28 13:00:00 30 5 Norte 16 Norte 0 -- -- 68
2020-08-28 12:00:00 29.7 4 Nordeste 13 Sudeste 0 -- -- 68
2020-08-28 11:00:00 28.7 5 Este 13 Sudeste 0 -- -- 72
2020-08-28 10:00:00 26.8 3 Sur 9 Sudeste 0 -- -- 80
2020-08-28 09:00:00 25.8 3 Sudoeste 8 Oeste 0 -- -- 84
2020-08-28 08:00:00 25.1 0 Calma 5 Sudeste 0.6 -- -- 88
2020-08-28 07:00:00 25.2 2 Este 5 Nordeste 0 -- -- 83
2020-08-28 06:00:00 25.3 0 Calma 4 Este 0 -- -- 83
2020-08-28 05:00:00 25.5 3 Sudeste 4 Sudeste 0 -- -- 82
2020-08-28 04:00:00 25.7 2 Sudeste 5 Sudeste 0 -- -- 82
2020-08-28 03:00:00 25.9 0 Calma 4 Sudeste 0 -- -- 82
2020-08-28 02:00:00 26.3 4 Oeste 6 Oeste 0 -- -- 80
2020-08-28 01:00:00 26.5 4 Oeste 7 Oeste 0 -- -- 79
2020-08-28 00:00:00 26.7 3 Oeste 9 Oeste 0 -- -- 79
2020-08-27 23:00:00 26.9 5 Oeste 9 Sudoeste 0 -- -- 78
2020-08-27 22:00:00 27.2 4 Oeste 12 Oeste 0 -- -- 76
2020-08-27 21:00:00 27.4 7 Oeste 15 Sudoeste 0 -- -- 74
2020-08-27 20:00:00 27.9 9 Oeste 18 Sudoeste 0 -- -- 73
2020-08-27 19:00:00 28.6 11 Oeste 24 Sudoeste 0 -- -- 70
2020-08-27 18:00:00 29 12 Oeste 22 Sudoeste 0 -- -- 69
2020-08-27 17:00:00 29.2 12 Sudoeste 24 Sudoeste 0 -- -- 70
2020-08-27 16:00:00 30.1 6 Oeste 19 Sudoeste 0 -- -- 71
2020-08-27 15:00:00 30 8 Oeste 19 Sudoeste 0 -- -- 70
2020-08-27 14:00:00 29.6 7 Oeste 21 Sudoeste 0 -- -- 68
2020-08-27 13:00:00 29.4 6 Oeste 19 Sudoeste 0 -- -- 71
2020-08-27 12:00:00 29 7 Sudeste 18 Sudeste 0 -- -- 75
2020-08-27 11:00:00 28.6 5 Sudeste 13 Sudeste 0 -- -- 75
2020-08-27 10:00:00 27.1 6 Sudeste 12 Sudeste 0 -- -- 78
2020-08-27 09:00:00 25.2 2 Sur 8 Este 0 -- -- 85
2020-08-27 08:00:00 24.6 2 Oeste 3 Oeste 0.6 -- -- 87
2020-08-27 07:00:00 24.7 0 Calma 2 Sudeste 0 -- -- 85
2020-08-27 06:00:00 24.9 0 Calma 4 Sudoeste 0 -- -- 83
2020-08-27 05:00:00 25.3 0 Calma 5 Este 0 -- -- 80
2020-08-27 04:00:00 25.5 3 Este 6 Nordeste 0 -- -- 78
2020-08-27 03:00:00 25.9 2 Oeste 4 Oeste 0 -- -- 81
2020-08-27 02:00:00 26.2 3 Oeste 5 Oeste 0 -- -- 80
2020-08-27 01:00:00 26.6 4 Oeste 9 Oeste 0 -- -- 78
2020-08-27 00:00:00 26.8 4 Oeste 9 Oeste 0 -- -- 78
2020-08-26 23:00:00 27 6 Oeste 13 Oeste 0 -- -- 76
2020-08-26 22:00:00 27.3 6 Oeste 11 Oeste 0 -- -- 76
2020-08-26 21:00:00 27.5 7 Oeste 17 Oeste 0 -- -- 75
2020-08-26 20:00:00 28.2 10 Oeste 23 Sudoeste 0 -- -- 70
2020-08-26 19:00:00 29.1 12 Oeste 23 Oeste 0 -- -- 68
2020-08-26 18:00:00 29.6 12 Oeste 25 Sudoeste 0 -- -- 67
2020-08-26 17:00:00 29.7 13 Sudoeste 27 Sudoeste 0 -- -- 65
2020-08-26 16:00:00 30.6 12 Sudoeste 25 Sudoeste 0 -- -- 62
2020-08-26 15:00:00 31 6 Oeste 28 Sudoeste 0 -- -- 62
2020-08-26 14:00:00 30.5 7 Oeste 23 Sudoeste 0 -- -- 67
2020-08-26 13:00:00 29.5 8 Oeste 19 Sudoeste 0 -- -- 72
2020-08-26 12:00:00 30 5 Oeste 13 Noroeste 0 -- -- 72
2020-08-26 11:00:00 28.2 5 Sudeste 12 Oeste 0 -- -- 75
2020-08-26 10:00:00 27.4 5 Oeste 11 Noroeste 0 -- -- 78
2020-08-26 09:00:00 25.8 4 Sudoeste 8 Oeste 0.2 -- -- 83
2020-08-26 08:00:00 24.8 2 Sudoeste 5 Oeste 0.4 -- -- 86
2020-08-26 07:00:00 24.8 0 Calma 4 Oeste 0 -- -- 84
2020-08-26 06:00:00 25.2 4 Oeste 6 Oeste 0 -- -- 82
2020-08-26 05:00:00 25.4 0 Calma 7 Oeste 0 -- -- 81
2020-08-26 04:00:00 25.4 0 Calma 4 Oeste 0 -- -- 80
2020-08-26 03:00:00 26 3 Oeste 9 Sudoeste 0 -- -- 78
2020-08-26 02:00:00 26.3 6 Oeste 10 Sudoeste 0 -- -- 78
2020-08-26 01:00:00 26.5 4 Oeste 10 Oeste 0 -- -- 77
2020-08-26 00:00:00 26.7 4 Oeste 11 Oeste 0 -- -- 76